Flight Track Log - Related Links

Times and Time Zones

All times are in EDT time to prevent confusion due to time zone crossing. See the N244A flight status page for this flight to view local times or setup timezone preferences in your user account.

Time Position Orientation Groundspeed Altitude Reporting Facility
EDT Latitude Longitude Course Direction KTS MPH feet Rate Location/Type
12:19PM 37.1044 -93.3706 98° East 297 342 6,600  Level Kansas City Center
12:20PM 37.0811 -93.2700 106° East 302 348 10,400 2,855 Climbing Kansas City Center
12:21PM 37.0778 -93.1469 92° East 336 387 12,500 2,613 Climbing Kansas City Center
12:22PM 37.0739 -92.9897 92° East 370 426 15,800 2,710 Climbing Kansas City Center
12:23PM 37.1768 -92.6181 97° East  Level FlightAware Approximate
12:23PM 37.0689 -92.8553 93° East 380 437 18,100  Level Kansas City Center
12:24PM 37.1658 -92.5090 98° East  Level FlightAware Approximate
12:24PM 37.0658 -92.7136 92° East 394 453 18,800  Level Kansas City Center
12:25PM 37.0558 -92.5617 95° East 418 481 19,000 97 Climbing Kansas City Center
12:26PM 37.0508 -92.4008 92° East 446 513 19,000  Level Kansas City Center
12:27PM 37.0464 -92.2372 92° East 462 532 19,000  Level Kansas City Center
12:28PM 37.0347 -92.0403 94° East 470 541 19,000  Level Kansas City Center
12:29PM 37.0281 -91.8750 93° East 476 548 19,000  Level Kansas City Center
12:30PM 37.0217 -91.7089 93° East 478 550 19,000 -290 Level Kansas City Center
12:31PM 37.0131 -91.5444 94° East 477 549 18,400 -774 Descending Kansas City Center
12:32PM 37.0058 -91.3811 93° East 474 545 17,400 -968 Descending Kansas City Center
12:33PM 36.9953 -91.2250 95° East 459 528 16,400 -1,210 Descending Kansas City Center
12:34PM 36.9847 -91.0447 94° East 444 511 14,900 -1,210 Descending Kansas City Center
12:35PM 36.9808 -90.8950 92° East 434 499 13,900 -968 Descending Kansas City Center
12:36PM 36.9714 -90.7475 95° East 430 495 12,900 -1,113 Descending Kansas City Center
12:37PM 36.9614 -90.6047 95° East 420 483 11,600 -1,113 Descending Kansas City Center
12:38PM 36.9542 -90.4767 94° East 388 447 10,600 -726 Descending Kansas City Center
12:39PM 36.9514 -90.3611 92° East 348 400 10,100 -774 Descending Kansas City Center
12:40PM 36.9489 -90.2369 91° East 308 354 9,000 -1,221 Descending Kansas City Center
12:42PM 36.9275 -90.0739 99° East 271 312 6,600 -1,271 Descending Memphis Center
12:43PM 36.9250 -89.9858 92° East 265 305 5,400 -1,300 Descending Memphis Center
12:44PM 36.9269 -89.8975 88° East 255 293 4,000 -1,150 Descending Memphis Center
12:45PM 36.9161 -89.8094 99° East 250 288 3,100 -750 Descending Memphis Center
12:46PM 36.9094 -89.7264 96° East 244 281 2,500 -600 Descending Memphis Center

Login

Don't have an account? Register now (free) for customized features, flight alerts, and more!